Park City, KY (42160)

11:44 AM CDT on July 29, 2016 (GMT -0500)
Glasgow Municipal | | Change Station

Elev 715 ft 37.03 °N, 85.95 °W | Updated 9 minutes ago

Scattered Clouds
Scattered Clouds
73 °F
Feels Like 73 °F
N
7
Wind Variable Wind from SW

Today
High -- | Low -- °F
--% Chance of Precip.
Yesterday
High -- | Low -- °F
Precip. -- in
Pressure 29.99 in
Visibility 10.0 miles
Clouds Scattered Clouds 3200 ft
Scattered Clouds 4100 ft
Scattered Clouds 7000 ft
Dew Point 73 °F
Humidity 100%
Rainfall 0.15 in
Snow Depth Not available.
5:47 AM 7:53 PM
Waning Crescent, 21% visible
METAR KGLW 291635Z AUTO 23006KT 10SM VCTS SCT032 SCT041 SCT070 23/23 A2999 RMK AO2 LTG DSNT ALQS P0002 T02290229
Pressure 29.99 in
Visibility 10.0 miles
Clouds Scattered Clouds 3200 ft
Scattered Clouds 4100 ft
Scattered Clouds 7000 ft
Dew Point 73 °F
Humidity 100%
Rainfall 0.15 in
Snow Depth Not available.
5:47 AM 7:53 PM
Waning Crescent, 21% visible
METAR KGLW 291635Z AUTO 23006KT 10SM VCTS SCT032 SCT041 SCT070 23/23 A2999 RMK AO2 LTG DSNT ALQS P0002 T02290229

10-Day Weather Forecast

Almanac

Astronomy

Jul. 29, 2016 Rise Set
Actual Time
Civil Twilight
Nautical Twilight
Astronomical Twilight
Moon
Length of Visible Light
Length of Day
Tomorrow will be .
, % of the Moon is Illuminated

Today's Extremes

State Highs State Lows

Community

WunderPhotos

Upload Photos

1,928,378 photos uploaded!

WunderBlog® & News

Nearby

Air Quality

  Air Quality AQ Index Pollutant
Not available.

Snow Depth

Station Depth Elevation

Earthquake Activity

City Distance Mag. Time & Date
Minimum magnitude displayed is 2.5.

Coastal Water Temperatures

Place Temperature

Stations

Nearby Weather Stations

Station Location Temp. Windchill Dew Point Humidity Wind Precip. Elev Updated Type
                   

Watches & Warnings

There are currently no watches in effect.